| time (UTC) | temp F | wind direction | speed MPH | gust MPH | rain 1hr in | rain 24hr in | rain mn in | humidity % | barometer mb |
| 20260502193540 | 67 | 157 | 5.0 | 10.0 | 0.00 | 0.00 | 0.00 | 64 | 1013.6 |
| 20260502193042 | 66 | 160 | 6.0 | 11.0 | 0.00 | 0.00 | 0.00 | 65 | 1013.7 |
| 20260502192538 | 66 | 156 | 7.0 | 11.0 | 0.00 | 0.00 | 0.00 | 63 | 1013.6 |
| 20260502192038 | 66 | 155 | 6.0 | 11.0 | 0.00 | 0.00 | 0.00 | 66 | 1013.7 |
| 20260502191543 | 65 | 153 | 4.0 | 11.0 | 0.00 | 0.00 | 0.00 | 67 | 1013.7 |
| 20260502191041 | 65 | 178 | 6.0 | 11.0 | 0.00 | 0.00 | 0.00 | 65 | 1013.8 |
| 20260502190537 | 65 | 167 | 5.0 | 9.0 | 0.00 | 0.00 | 0.00 | 67 | 1013.7 |
| 20260502190045 | 64 | 159 | 5.0 | 9.0 | 0.00 | 0.00 | 0.00 | 68 | 1013.8 |
| 20260502185536 | 64 | 140 | 6.0 | 9.0 | 0.00 | 0.00 | 0.00 | 68 | 1013.7 |
| 20260502185036 | 64 | 170 | 4.0 | 8.0 | 0.00 | 0.00 | 0.00 | 68 | 1013.7 |
| 20260502184535 | 64 | 155 | 4.0 | 8.0 | 0.00 | 0.00 | 0.00 | 67 | 1013.6 |
| 20260502184035 | 63 | 155 | 2.0 | 9.0 | 0.00 | 0.00 | 0.00 | 70 | 1013.9 |
| 20260502183535 | 63 | 220 | 5.0 | 8.0 | 0.00 | 0.00 | 0.00 | 70 | 1014.0 |
| 20260502183035 | 63 | 180 | 4.0 | 8.0 | 0.00 | 0.00 | 0.00 | 70 | 1013.9 |
| 20260502182535 | 62 | 162 | 2.0 | 6.0 | 0.00 | 0.00 | 0.00 | 72 | 1014.0 |
| 20260502182034 | 62 | 168 | 4.0 | 6.0 | 0.00 | 0.00 | 0.00 | 71 | 1014.0 |
| 20260502181537 | 62 | 209 | 4.0 | 8.0 | 0.00 | 0.00 | 0.00 | 72 | 1014.2 |
| 20260502181034 | 62 | 229 | 4.0 | 8.0 | 0.00 | 0.00 | 0.00 | 71 | 1014.1 |
| 20260502180534 | 62 | 148 | 5.0 | 8.0 | 0.00 | 0.00 | 0.00 | 71 | 1014.1 |
| 20260502164028 | 62 | 225 | 4.0 | 9.0 | 0.00 | 0.00 | 0.00 | 72 | 1013.4 |
| 20260502163528 | 62 | 246 | 6.0 | 9.0 | 0.00 | 0.00 | 0.00 | 72 | 1013.4 |
| 20260502163027 | 62 | 267 | 6.0 | 9.0 | 0.00 | 0.00 | 0.00 | 72 | 1013.3 |
| 20260502162526 | 63 | 256 | 4.0 | 8.0 | 0.00 | 0.00 | 0.00 | 72 | 1013.2 |
| 20260502162028 | 63 | 239 | 4.0 | 7.0 | 0.00 | 0.00 | 0.00 | 72 | 1013.1 |
| 20260502161525 | 63 | 199 | 4.0 | 7.0 | 0.00 | 0.00 | 0.00 | 72 | 1013.1 |
| 20260502161024 | 63 | 196 | 5.0 | 7.0 | 0.00 | 0.00 | 0.00 | 72 | 1013.1 |
| 20260502160525 | 64 | 237 | 3.0 | 6.0 | 0.00 | 0.00 | 0.00 | 73 | 1013.2 |
| 20260502152022 | 63 | 194 | 3.0 | 5.0 | 0.00 | 0.00 | 0.00 | 76 | 1013.0 |
| 20260502151548 | 63 | 175 | 3.0 | 5.0 | 0.00 | 0.00 | 0.00 | 76 | 1013.0 |
| 20260502151022 | 62 | 164 | 3.0 | 5.0 | 0.00 | 0.00 | 0.00 | 73 | 1013.0 |
| 20260502150522 | 62 | 61 | 0.0 | 4.0 | 0.00 | 0.00 | 0.00 | 77 | 1013.0 |
| 20260502130511 | 58 | 239 | 0.0 | 2.0 | 0.00 | 0.00 | 0.00 | 86 | 1012.5 |
| 20260502123506 | 58 | 236 | 0.0 | 0.0 | 0.00 | 0.00 | 0.00 | 84 | 1012.2 |
| 20260502123006 | 58 | 236 | 0.0 | 2.0 | 0.00 | 0.00 | 0.00 | 84 | 1012.2 |
| 20260502122505 | 58 | 236 | 0.0 | 2.0 | 0.00 | 0.00 | 0.00 | 83 | 1012.2 |
| 20260502122004 | 59 | 236 | 1.0 | 4.0 | 0.00 | 0.00 | 0.00 | 82 | 1012.1 |
| 20260502121502 | 59 | 236 | 0.0 | 4.0 | 0.00 | 0.00 | 0.00 | 81 | 1012.1 |
| 20260502121100 | 60 | 230 | 2.0 | 4.0 | 0.00 | 0.00 | 0.00 | 79 | 1012.0 |
| 20260502120600 | 60 | 124 | 1.0 | 4.0 | 0.00 | 0.00 | 0.00 | 78 | 1011.9 |
| 20260502120104 | 60 | 148 | 0.0 | 2.0 | 0.00 | 0.00 | 0.00 | 79 | 1011.9 |
| 20260502115602 | 60 | 149 | 0.0 | 0.0 | 0.00 | 0.00 | 0.00 | 79 | 1012.0 |
| 20260502115058 | 61 | 149 | 0.0 | 2.0 | 0.00 | 0.00 | 0.00 | 78 | 1012.0 |
| 20260502114559 | 61 | 149 | 0.0 | 2.0 | 0.00 | 0.00 | 0.00 | 77 | 1012.1 |
| 20260502114100 | 61 | 148 | 0.0 | 2.0 | 0.00 | 0.00 | 0.00 | 78 | 1012.1 |
| 20260502113557 | 61 | 148 | 0.0 | 5.0 | 0.00 | 0.00 | 0.00 | 78 | 1012.0 |
| 20260502113056 | 61 | 155 | 0.0 | 5.0 | 0.00 | 0.00 | 0.00 | 78 | 1012.1 |
| 20260502112555 | 61 | 102 | 1.0 | 5.0 | 0.00 | 0.00 | 0.00 | 79 | 1012.1 |
| 20260502112055 | 61 | 104 | 2.0 | 5.0 | 0.00 | 0.00 | 0.00 | 80 | 1012.1 |
| 20260502111555 | 61 | 145 | 0.0 | 5.0 | 0.00 | 0.00 | 0.00 | 81 | 1012.2 |
| 20260502111054 | 60 | 116 | 1.0 | 4.0 | 0.00 | 0.00 | 0.00 | 82 | 1012.2 |
| 20260502110554 | 60 | 126 | 1.0 | 3.0 | 0.00 | 0.00 | 0.00 | 82 | 1012.3 |
| 20260502110100 | 60 | 156 | 0.0 | 4.0 | 0.00 | 0.00 | 0.00 | 82 | 1012.3 |
| 20260502105553 | 60 | 156 | 0.0 | 5.0 | 0.00 | 0.00 | 0.00 | 82 | 1012.3 |
| 20260502105052 | 61 | 157 | 1.0 | 5.0 | 0.00 | 0.00 | 0.00 | 82 | 1012.3 |
| 20260502104551 | 61 | 159 | 0.0 | 3.0 | 0.00 | 0.00 | 0.00 | 81 | 1012.3 |
| 20260502104050 | 61 | 159 | 0.0 | 4.0 | 0.00 | 0.00 | 0.00 | 81 | 1012.4 |
| 20260502103549 | 62 | 159 | 1.0 | 3.0 | 0.00 | 0.00 | 0.00 | 80 | 1012.4 |
| 20260502103054 | 62 | 150 | 1.0 | 4.0 | 0.00 | 0.00 | 0.00 | 80 | 1012.3 |
| 20260502102549 | 62 | 146 | 1.0 | 5.0 | 0.00 | 0.00 | 0.00 | 80 | 1012.2 |
| 20260502102047 | 62 | 146 | 1.0 | 6.0 | 0.00 | 0.00 | 0.00 | 79 | 1012.3 |
| 20260502101557 | 62 | 154 | 4.0 | 6.0 | 0.00 | 0.00 | 0.00 | 79 | 1012.3 |
| 20260502101046 | 62 | 152 | 3.0 | 7.0 | 0.00 | 0.00 | 0.00 | 80 | 1012.3 |
| 20260502100546 | 62 | 140 | 3.0 | 7.0 | 0.00 | 0.00 | 0.00 | 80 | 1012.4 |
| 20260502100146 | 62 | 155 | 2.0 | 6.0 | 0.00 | 0.00 | 0.00 | 80 | 1012.4 |
| 20260502091037 | 64 | 160 | 1.0 | 4.0 | 0.00 | 0.00 | 0.00 | 77 | 1012.6 |
| 20260502090536 | 65 | 169 | 0.0 | 2.0 | 0.00 | 0.00 | 0.00 | 76 | 1012.5 |
| 20260502071524 | 68 | 126 | 2.0 | 6.0 | 0.00 | 0.00 | 0.00 | 72 | 1012.8 |
| 20260502071023 | 68 | 94 | 3.0 | 6.0 | 0.00 | 0.00 | 0.00 | 72 | 1012.8 |
| 20260502070522 | 68 | 102 | 3.0 | 6.0 | 0.00 | 0.00 | 0.00 | 72 | 1012.8 |
| 20260502070038 | 68 | 107 | 2.0 | 6.0 | 0.00 | 0.00 | 0.00 | 72 | 1012.8 |
| 20260502065522 | 68 | 102 | 2.0 | 7.0 | 0.00 | 0.00 | 0.00 | 72 | 1012.7 |
| 20260502065021 | 68 | 107 | 2.0 | 7.0 | 0.00 | 0.00 | 0.00 | 72 | 1012.7 |
| 20260502064523 | 68 | 106 | 4.0 | 7.0 | 0.00 | 0.00 | 0.00 | 71 | 1012.8 |
| 20260502064021 | 68 | 97 | 3.0 | 5.0 | 0.00 | 0.00 | 0.00 | 72 | 1012.7 |
| 20260502063521 | 68 | 96 | 3.0 | 5.0 | 0.00 | 0.00 | 0.00 | 71 | 1012.8 |
| 20260502063034 | 69 | 109 | 2.0 | 5.0 | 0.00 | 0.00 | 0.00 | 71 | 1012.8 |
| 20260502062520 | 69 | 139 | 1.0 | 2.0 | 0.00 | 0.00 | 0.00 | 70 | 1012.8 |
| 20260502062020 | 69 | 139 | 0.0 | 2.0 | 0.00 | 0.00 | 0.00 | 69 | 1012.8 |
| 20260502061520 | 69 | 138 | 0.0 | 2.0 | 0.00 | 0.00 | 0.00 | 69 | 1012.9 |
| 20260502061023 | 70 | 138 | 0.0 | 3.0 | 0.00 | 0.00 | 0.00 | 68 | 1012.8 |
| 20260502060520 | 69 | 138 | 1.0 | 3.0 | 0.00 | 0.00 | 0.00 | 67 | 1012.9 |
| 20260502060019 | 69 | 122 | 0.0 | 4.0 | 0.00 | 0.00 | 0.00 | 67 | 1012.9 |
| 20260502055519 | 69 | 107 | 1.0 | 3.0 | 0.00 | 0.00 | 0.00 | 67 | 1012.8 |
| 20260502055019 | 69 | 113 | 0.0 | 4.0 | 0.00 | 0.00 | 0.00 | 68 | 1012.9 |
| 20260502054530 | 69 | 114 | 0.0 | 5.0 | 0.00 | 0.00 | 0.00 | 68 | 1012.9 |
| 20260502054018 | 69 | 121 | 2.0 | 6.0 | 0.00 | 0.00 | 0.00 | 68 | 1013.0 |
| 20260502053518 | 69 | 111 | 1.0 | 5.0 | 0.00 | 0.00 | 0.00 | 68 | 1013.0 |
| 20260502053018 | 70 | 146 | 1.0 | 5.0 | 0.00 | 0.00 | 0.00 | 68 | 1013.0 |
| 20260502052518 | 70 | 96 | 0.0 | 5.0 | 0.00 | 0.00 | 0.00 | 67 | 1013.0 |
| 20260502052018 | 70 | 128 | 1.0 | 7.0 | 0.00 | 0.00 | 0.00 | 67 | 1013.0 |
| 20260502051517 | 70 | 152 | 0.0 | 7.0 | 0.00 | 0.00 | 0.00 | 66 | 1013.0 |
| 20260502051020 | 70 | 146 | 1.0 | 4.0 | 0.00 | 0.00 | 0.00 | 66 | 1013.0 |
| 20260502050519 | 70 | 153 | 1.0 | 4.0 | 0.00 | 0.00 | 0.00 | 66 | 1013.0 |
| 20260502050029 | 70 | 160 | 0.0 | 6.0 | 0.00 | 0.00 | 0.00 | 66 | 1013.0 |
| 20260502045516 | 71 | 149 | 2.0 | 7.0 | 0.00 | 0.00 | 0.00 | 66 | 1013.0 |
| 20260502045017 | 71 | 158 | 3.0 | 7.0 | 0.00 | 0.00 | 0.00 | 67 | 1013.0 |
| 20260502044516 | 71 | 150 | 0.0 | 6.0 | 0.00 | 0.00 | 0.00 | 67 | 1012.9 |
| 20260502044016 | 71 | 147 | 0.0 | 7.0 | 0.00 | 0.00 | 0.00 | 67 | 1012.9 |
| 20260502043516 | 72 | 142 | 5.0 | 7.0 | 0.00 | 0.00 | 0.00 | 67 | 1012.9 |
| 20260502043018 | 72 | 151 | 2.0 | 7.0 | 0.00 | 0.00 | 0.00 | 66 | 1012.9 |
| 20260502042516 | 72 | 153 | 4.0 | 7.0 | 0.00 | 0.00 | 0.00 | 66 | 1012.8 |
| 20260502042015 | 72 | 153 | 4.0 | 7.0 | 0.00 | 0.00 | 0.00 | 65 | 1012.7 |
| 20260502041514 | 72 | 150 | 2.0 | 7.0 | 0.00 | 0.00 | 0.00 | 65 | 1012.7 |
| 20260502041013 | 73 | 134 | 1.0 | 5.0 | 0.00 | 0.00 | 0.00 | 65 | 1012.5 |
| 20260502040513 | 73 | 146 | 1.0 | 6.0 | 0.00 | 0.00 | 0.00 | 64 | 1012.5 |
| 20260502040014 | 73 | 142 | 2.0 | 6.0 | 0.00 | 0.00 | 0.00 | 64 | 1012.4 |
| 20260502035513 | 73 | 146 | 2.0 | 6.0 | 0.00 | 0.00 | 0.00 | 63 | 1012.4 |
| 20260502035012 | 73 | 150 | 1.0 | 6.0 | 0.00 | 0.00 | 0.00 | 63 | 1012.3 |
| 20260502034517 | 74 | 146 | 2.0 | 6.0 | 0.00 | 0.00 | 0.00 | 62 | 1012.2 |
| 20260502034015 | 74 | 144 | 1.0 | 3.0 | 0.00 | 0.00 | 0.00 | 61 | 1012.1 |
| 20260502033516 | 74 | 146 | 1.0 | 3.0 | 0.00 | 0.00 | 0.00 | 60 | 1012.0 |
| 20260502033012 | 75 | 148 | 1.0 | 6.0 | 0.00 | 0.00 | 0.00 | 59 | 1012.0 |
| 20260502032510 | 75 | 157 | 1.0 | 6.0 | 0.00 | 0.00 | 0.00 | 59 | 1012.0 |
| 20260502032010 | 75 | 143 | 2.0 | 6.0 | 0.00 | 0.00 | 0.00 | 58 | 1011.9 |
| 20260502031510 | 75 | 147 | 1.0 | 5.0 | 0.00 | 0.00 | 0.00 | 58 | 1011.8 |
| 20260502031009 | 75 | 159 | 1.0 | 5.0 | 0.00 | 0.00 | 0.00 | 59 | 1011.9 |
| 20260502030511 | 75 | 138 | 1.0 | 5.0 | 0.00 | 0.00 | 0.00 | 59 | 1011.8 |
| 20260502030007 | 75 | 111 | 2.0 | 5.0 | 0.00 | 0.00 | 0.00 | 59 | 1011.8 |
| 20260502025507 | 75 | 202 | 0.0 | 2.0 | 0.00 | 0.00 | 0.00 | 59 | 1011.8 |
| 20260502025008 | 76 | 240 | 0.0 | 4.0 | 0.00 | 0.00 | 0.00 | 59 | 1011.7 |
| 20260502024507 | 76 | 128 | 0.0 | 4.0 | 0.00 | 0.00 | 0.00 | 58 | 1011.8 |
| 20260502024007 | 76 | 96 | 0.0 | 2.0 | 0.00 | 0.00 | 0.00 | 58 | 1011.8 |
| 20260502023506 | 76 | 157 | 0.0 | 2.0 | 0.00 | 0.00 | 0.00 | 58 | 1011.7 |
| 20260502023006 | 76 | 112 | 0.0 | 2.0 | 0.00 | 0.00 | 0.00 | 58 | 1011.7 |
| 20260502022507 | 77 | 156 | 0.0 | 1.0 | 0.00 | 0.00 | 0.00 | 58 | 1011.8 |
| 20260502022008 | 77 | 56 | 0.0 | 1.0 | 0.00 | 0.00 | 0.00 | 57 | 1011.8 |
| 20260502021505 | 77 | 5 | 0.0 | 2.0 | 0.00 | 0.00 | 0.00 | 57 | 1011.8 |
| 20260502021106 | 77 | 134 | 0.0 | 2.0 | 0.00 | 0.00 | 0.00 | 58 | 1011.8 |
| 20260502020504 | 77 | 217 | 0.0 | 4.0 | 0.00 | 0.00 | 0.00 | 57 | 1011.8 |
| 20260502020003 | 77 | 126 | 0.0 | 5.0 | 0.00 | 0.00 | 0.00 | 58 | 1011.8 |
| 20260502015503 | 77 | 159 | 1.0 | 5.0 | 0.00 | 0.00 | 0.00 | 57 | 1011.9 |
| 20260502015002 | 78 | 178 | 3.0 | 5.0 | 0.00 | 0.00 | 0.00 | 56 | 1011.9 |
| 20260502014502 | 78 | 196 | 1.0 | 6.0 | 0.00 | 0.00 | 0.00 | 56 | 1012.0 |
| 20260502014002 | 78 | 153 | 3.0 | 6.0 | 0.00 | 0.00 | 0.00 | 55 | 1012.0 |
| 20260502013502 | 78 | 168 | 3.0 | 6.0 | 0.00 | 0.00 | 0.00 | 55 | 1012.0 |
| 20260502013002 | 79 | 259 | 1.0 | 3.0 | 0.00 | 0.00 | 0.00 | 56 | 1012.0 |
| 20260502012502 | 79 | 262 | 1.0 | 4.0 | 0.00 | 0.00 | 0.00 | 55 | 1012.0 |
| 20260502012001 | 79 | 278 | 2.0 | 4.0 | 0.00 | 0.00 | 0.00 | 53 | 1012.1 |
| 20260502011502 | 79 | 256 | 1.0 | 3.0 | 0.00 | 0.00 | 0.00 | 53 | 1012.0 |
| 20260502011101 | 79 | 240 | 0.0 | 4.0 | 0.00 | 0.00 | 0.00 | 54 | 1012.1 |
| 20260502010559 | 79 | 261 | 1.0 | 5.0 | 0.00 | 0.00 | 0.00 | 53 | 1012.0 |
| 20260502010059 | 80 | 220 | 1.0 | 5.0 | 0.00 | 0.00 | 0.00 | 53 | 1012.0 |
| 20260502005559 | 80 | 233 | 1.0 | 4.0 | 0.00 | 0.00 | 0.00 | 53 | 1012.1 |
| 20260502005059 | 80 | 246 | 1.0 | 4.0 | 0.00 | 0.00 | 0.00 | 51 | 1012.1 |
| 20260502004600 | 80 | 284 | 0.0 | 4.0 | 0.00 | 0.00 | 0.00 | 52 | 1012.0 |
| 20260502004058 | 80 | 236 | 1.0 | 3.0 | 0.00 | 0.00 | 0.00 | 51 | 1012.1 |
| 20260502003600 | 81 | 298 | 2.0 | 4.0 | 0.00 | 0.00 | 0.00 | 52 | 1012.1 |
| 20260502003058 | 80 | 306 | 1.0 | 3.0 | 0.00 | 0.00 | 0.00 | 52 | 1012.2 |
| 20260502002600 | 80 | 284 | 0.0 | 5.0 | 0.00 | 0.00 | 0.00 | 52 | 1012.1 |
| 20260502002057 | 79 | 184 | 3.0 | 5.0 | 0.00 | 0.00 | 0.00 | 51 | 1012.2 |
| 20260502001633 | 79 | 203 | 1.0 | 5.0 | 0.00 | 0.00 | 0.00 | 53 | 1012.2 |
| 20260502001055 | 79 | 191 | 1.0 | 3.0 | 0.00 | 0.00 | 0.00 | 53 | 1012.4 |
| 20260502000556 | 79 | 254 | 1.0 | 5.0 | 0.00 | 0.00 | 0.00 | 54 | 1012.3 |
| 20260502000115 | 79 | 252 | 1.0 | 5.0 | 0.00 | 0.00 | 0.00 | 51 | 1012.4 |
| 20260501235557 | 79 | 302 | 0.0 | 5.0 | 0.00 | 0.00 | 0.00 | 50 | 1012.4 |
| 20260501235055 | 79 | 249 | 2.0 | 5.0 | 0.00 | 0.00 | 0.00 | 52 | 1012.5 |
| 20260501234555 | 79 | 194 | 0.0 | 5.0 | 0.00 | 0.00 | 0.00 | 51 | 1012.5 |
| 20260501234057 | 79 | 194 | 2.0 | 6.0 | 0.00 | 0.00 | 0.00 | 50 | 1012.6 |
| 20260501233555 | 79 | 236 | 5.0 | 6.0 | 0.00 | 0.00 | 0.00 | 51 | 1012.5 |
| 20260501233054 | 79 | 175 | 0.0 | 5.0 | 0.00 | 0.00 | 0.00 | 51 | 1012.6 |
| 20260501232554 | 79 | 220 | 0.0 | 5.0 | 0.00 | 0.00 | 0.00 | 51 | 1012.6 |
| 20260501232053 | 79 | 215 | 4.0 | 6.0 | 0.00 | 0.00 | 0.00 | 52 | 1012.7 |
| 20260501231553 | 79 | 236 | 2.0 | 6.0 | 0.00 | 0.00 | 0.00 | 51 | 1012.8 |
| 20260501231052 | 79 | 235 | 3.0 | 7.0 | 0.00 | 0.00 | 0.00 | 51 | 1012.8 |
| 20260501230552 | 80 | 273 | 4.0 | 7.0 | 0.00 | 0.00 | 0.00 | 50 | 1012.8 |
| 20260501230052 | 80 | 348 | 1.0 | 6.0 | 0.00 | 0.00 | 0.00 | 51 | 1012.8 |
| 20260501225554 | 80 | 264 | 1.0 | 5.0 | 0.00 | 0.00 | 0.00 | 53 | 1012.9 |
| 20260501225049 | 79 | 134 | 2.0 | 8.0 | 0.00 | 0.00 | 0.00 | 52 | 1013.0 |
| 20260501224606 | 79 | 279 | 4.0 | 8.0 | 0.00 | 0.00 | 0.00 | 52 | 1013.0 |
| 20260501224049 | 79 | 221 | 4.0 | 7.0 | 0.00 | 0.00 | 0.00 | 52 | 1013.1 |
| 20260501223549 | 80 | 190 | 4.0 | 7.0 | 0.00 | 0.00 | 0.00 | 54 | 1013.1 |
| 20260501223049 | 79 | 198 | 0.0 | 6.0 | 0.00 | 0.00 | 0.00 | 53 | 1013.2 |
| 20260501222552 | 79 | 238 | 2.0 | 7.0 | 0.00 | 0.00 | 0.00 | 52 | 1013.4 |
| 20260501222050 | 79 | 284 | 1.0 | 7.0 | 0.00 | 0.00 | 0.00 | 53 | 1013.5 |
| 20260501221548 | 79 | 240 | 3.0 | 8.0 | 0.00 | 0.00 | 0.00 | 53 | 1013.6 |
| 20260501221046 | 79 | 344 | 3.0 | 7.0 | 0.00 | 0.00 | 0.00 | 54 | 1013.7 |
| 20260501220546 | 78 | 221 | 3.0 | 7.0 | 0.00 | 0.00 | 0.00 | 54 | 1013.7 |
| 20260501220048 | 78 | 244 | 4.0 | 10.0 | 0.00 | 0.00 | 0.00 | 52 | 1013.7 |
| 20260501215547 | 78 | 224 | 5.0 | 10.0 | 0.00 | 0.00 | 0.00 | 51 | 1013.8 |
| 20260501215046 | 78 | 187 | 5.0 | 9.0 | 0.00 | 0.00 | 0.00 | 51 | 1013.9 |
| 20260501214545 | 78 | 272 | 1.0 | 10.0 | 0.00 | 0.00 | 0.00 | 51 | 1013.9 |
| 20260501214044 | 78 | 281 | 5.0 | 8.0 | 0.00 | 0.00 | 0.00 | 51 | 1013.9 |
| 20260501213543 | 78 | 196 | 3.0 | 8.0 | 0.00 | 0.00 | 0.00 | 51 | 1014.0 |
| 20260501213046 | 78 | 228 | 2.0 | 6.0 | 0.00 | 0.00 | 0.00 | 52 | 1014.0 |
| 20260501212543 | 78 | 237 | 2.0 | 6.0 | 0.00 | 0.00 | 0.00 | 52 | 1014.0 |
| 20260501212042 | 78 | 239 | 2.0 | 7.0 | 0.00 | 0.00 | 0.00 | 53 | 1014.0 |
| 20260501211542 | 77 | 174 | 4.0 | 8.0 | 0.00 | 0.00 | 0.00 | 52 | 1014.1 |
| 20260501211042 | 77 | 279 | 4.0 | 8.0 | 0.00 | 0.00 | 0.00 | 53 | 1014.1 |
| 20260501210541 | 77 | 241 | 4.0 | 9.0 | 0.00 | 0.00 | 0.00 | 54 | 1014.1 |
| 20260501210040 | 77 | 215 | 6.0 | 11.0 | 0.00 | 0.00 | 0.00 | 55 | 1014.0 |
| 20260501205539 | 77 | 191 | 5.0 | 11.0 | 0.00 | 0.00 | 0.00 | 55 | 1014.1 |
| 20260501205039 | 76 | 167 | 2.0 | 8.0 | 0.00 | 0.00 | 0.00 | 55 | 1014.2 |
| 20260501204539 | 76 | 256 | 5.0 | 11.0 | 0.00 | 0.00 | 0.00 | 54 | 1014.3 |
| 20260501204039 | 75 | 185 | 6.0 | 11.0 | 0.00 | 0.00 | 0.00 | 55 | 1014.3 |
| 20260501203538 | 76 | 182 | 6.0 | 9.0 | 0.00 | 0.00 | 0.00 | 53 | 1014.3 |
| 20260501203039 | 76 | 275 | 3.0 | 9.0 | 0.00 | 0.00 | 0.00 | 56 | 1014.3 |
| 20260501202537 | 76 | 191 | 4.0 | 10.0 | 0.00 | 0.00 | 0.00 | 56 | 1014.3 |
| 20260501202037 | 76 | 209 | 4.0 | 10.0 | 0.00 | 0.00 | 0.00 | 56 | 1014.3 |
| 20260501201537 | 76 | 244 | 4.0 | 7.0 | 0.00 | 0.00 | 0.00 | 56 | 1014.3 |
| 20260501201037 | 76 | 223 | 4.0 | 9.0 | 0.00 | 0.00 | 0.00 | 56 | 1014.4 |
| 20260501200534 | 75 | 173 | 5.0 | 7.0 | 0.00 | 0.00 | 0.00 | 56 | 1014.4 |
| 20260501200043 | 75 | 202 | 4.0 | 8.0 | 0.00 | 0.00 | 0.00 | 56 | 1014.5 |
| 20260501195532 | 74 | 230 | 5.0 | 9.0 | 0.00 | 0.00 | 0.00 | 54 | 1014.5 |
| 20260501195032 | 75 | 241 | 1.0 | 7.0 | 0.00 | 0.00 | 0.00 | 55 | 1014.5 |
| 20260501194544 | 74 | 188 | 4.0 | 10.0 | 0.00 | 0.00 | 0.00 | 54 | 1014.6 |
| 20260501194031 | 74 | 206 | 6.0 | 10.0 | 0.00 | 0.00 | 0.00 | 53 | 1014.7 |